LFPG Airport Information

Runway Information
Runway 08L Length 13829 ft width 148 ft
Elevation 338 ft Threshold 0 ft Heading 85
Runway 26R Length 13829 ft Width 148 ft
Elevation 318 ft Threshold 1969 ft Heading 265
Runway 08R Length 8858 ft width 197 ft
Elevation 336 ft Threshold 0 ft Heading 85
Runway 26L Length 8858 ft Width 197 ft
Elevation 316 ft Threshold 0 ft Heading 265
Runway 09L Length 8858 ft width 197 ft
Elevation 378 ft Threshold 0 ft Heading 85
Runway 27R Length 8858 ft Width 197 ft
Elevation 392 ft Threshold 0 ft Heading 265
Runway 09R Length 13780 ft width 148 ft
Elevation 370 ft Threshold 0 ft Heading 86
Runway 27L Length 13780 ft Width 148 ft
Elevation 387 ft Threshold 1969 ft Heading 266
Airport Frequencies
Type APP Name DE GAULLE Frequency 121.15 MHZ
Type APP Name DE GAULLE Frequency 136.275 MHZ
Type ATIS Name DE GAULLE Frequency 127.125 MHZ
Type DEP Name DE GAULLE Frequency 124.35 MHZ
Type GND Name DE GAULLE Frequency 118.1 MHZ
Type GND Name DE GAULLE Frequency 121.6 MHZ
Type PFLT Name DE GAULLE Frequency 126.65 MHZ
Type TWR Name DE GAULLE Frequency 119.25 MHZ
Type TWR Name DE GAULLE Frequency 120.65 MHZ
Airport Navaids
Type VOR-DME Name Charles de Gaulle Frequency 115350 KHZ
Type VOR-DME Name Charles de Gaulle Frequency 117050 KHZ
Airport Weather Information & NOTAM
ADDS - METARS form results

(0825 UTC 20 April 2019)
Data provider http://aviationweather.gov/metar/data/
 
METAR text: LFPG 200800Z VRB08KT 9999 FEW015 17/10 Q1027 NOSIG
Conditions at: LFPG (CHARLES DE GAULL, FR) observed 0800 UTC 20 April 2019
Temperature: 17.0°C (63°F)
Dewpoint: 10.0°C (50°F) [RH = 63%]
Pressure (altimeter): 30.32 inches Hg (1027.0 mb)
Winds: variable direction winds at 9 MPH (8 knots; 4.1 m/s)
Visibility: 6 or more miles (10+ km)
Ceiling: at least 12,000 feet AGL
Clouds: few clouds at 1500 feet AGL
Weather: no significant weather observed at this time

METAR text: LFPG 200730Z 01006KT 280V070 9999 FEW012 15/10 Q1027 NOSIG
Conditions at: LFPG (CHARLES DE GAULL, FR) observed 0730 UTC 20 April 2019
Temperature: 15.0°C (59°F)
Dewpoint: 10.0°C (50°F) [RH = 72%]
Pressure (altimeter): 30.32 inches Hg (1027.0 mb)
Winds: from the N (10 degrees) at 7 MPH (6 knots; 3.1 m/s)
Visibility: 6 or more miles (10+ km)
Ceiling: at least 12,000 feet AGL
Clouds: few clouds at 1200 feet AGL
Weather: no significant weather observed at this time

Forecast for: LFPG (CHARLES DE GAULL, FR)
Text: TAF LFPG 200500Z 2006/2112 03008KT CAVOK TX25/2015Z TN11/2105Z
Forecast period: 0600 UTC 20 April 2019 to 1200 UTC 21 April 2019
Forecast type: FROM: standard forecast or significant change
Winds: from the NNE (30 degrees) at 9 MPH (8 knots; 4.1 m/s)
Visibility: 6 or more miles 10+ km)
Ceiling: unknown
Clouds: missing
Weather: no significant weather forecast for this period